Time;durP1;ratioP1;P1;durP2;ratioP2;P2;SDS_P1;SDS_P2;PMS_P1;PMS_P2;Temp;Humidity;BMP_temperature;BMP_pressure;BME280_temperature;BME280_humidity;BME280_pressure;Samples;Min_cycle;Max_cycle;Signal;HPM_P1;HPM_P2
2022/08/31 00:08:43;;;;;;;0.70;0.60;;;;;;;19.31;82.79;102079.31;20804416;28;20045;-75
2022/08/31 00:18:45;;;;;;;0.77;0.52;;;;;;;19.29;82.63;102076.75;20802087;28;20053;-75
2022/08/31 00:28:48;;;;;;;1.05;0.68;;;;;;;19.29;82.48;102084.84;20802434;28;20057;-76
2022/08/31 00:38:50;;;;;;;0.52;0.50;;;;;;;19.28;82.42;102067.75;20801373;28;20049;-75
2022/08/31 00:49:00;;;;;;;0.52;0.40;;;;;;;19.28;82.27;102062.34;20767085;28;20080;-75
2022/08/31 00:59:02;;;;;;;0.60;0.45;;;;;;;19.23;81.77;102063.72;20717229;28;20140;-76
2022/08/31 01:09:06;;;;;;;0.60;0.60;;;;;;;19.13;81.52;102060.84;20719411;28;20441;-75
2022/08/31 01:19:37;;;;;;;0.50;0.43;;;;;;;19.27;81.29;102086.78;20715868;28;20637;-75
2022/08/31 01:29:39;;;;;;;1.17;0.40;;;;;;;19.13;81.07;102060.84;20681586;28;20685;-75
2022/08/31 01:39:40;;;;;;;0.60;0.40;;;;;;;19.25;81.01;102083.34;20718027;28;20049;-75
2022/08/31 01:49:43;;;;;;;0.40;0.40;;;;;;;19.24;80.64;102087.88;20715594;28;20046;-75
2022/08/31 01:59:45;;;;;;;0.57;0.40;;;;;;;19.24;80.47;102087.88;20714463;28;20553;-75
2022/08/31 02:10:09;;;;;;;0.63;0.50;;;;;;;19.24;80.42;102089.72;20715705;28;20053;-75
2022/08/31 02:20:12;;;;;;;0.90;0.57;;;;;;;19.18;80.18;102082.06;20697523;28;20129;-75
2022/08/31 02:30:18;;;;;;;0.30;0.30;;;;;;;19.22;79.80;102088.94;20713118;28;20038;-75
2022/08/31 02:40:19;;;;;;;0.70;0.43;;;;;;;19.22;79.55;102100.63;20714935;28;20049;-76
2022/08/31 02:50:21;;;;;;;0.47;0.40;;;;;;;19.22;79.41;102091.66;20697348;28;20573;-75
2022/08/31 03:00:23;;;;;;;0.35;0.28;;;;;;;19.06;79.11;102082.03;20728323;28;20532;-75
2022/08/31 03:10:25;;;;;;;0.35;0.35;;;;;;;19.04;78.89;102075.88;20728487;28;20046;-75
2022/08/31 03:20:27;;;;;;;0.30;0.30;;;;;;;19.20;78.74;102101.72;20727141;28;20054;-76
2022/08/31 03:30:29;;;;;;;0.32;0.30;;;;;;;19.18;78.84;102099.13;20710130;28;20392;-75
2022/08/31 03:40:40;;;;;;;0.30;0.30;;;;;;;18.79;78.24;102039.06;20725248;28;20137;-75
2022/08/31 03:50:43;;;;;;;0.63;0.30;;;;;;;19.12;78.29;102094.22;20704855;28;20048;-75
2022/08/31 04:00:50;;;;;;;0.30;0.30;;;;;;;19.16;78.15;102106.50;20722601;28;20124;-75
2022/08/31 04:11:14;;;;;;;0.40;0.30;;;;;;;19.15;78.09;102117.41;20699350;28;20053;-75
2022/08/31 04:21:46;;;;;;;0.30;0.30;;;;;;;19.15;77.88;102115.56;20642226;28;20498;-74
2022/08/31 04:31:48;;;;;;;0.20;0.20;;;;;;;18.85;77.66;102076.34;20717761;28;20049;-74
2022/08/31 04:41:49;;;;;;;0.88;0.40;;;;;;;19.14;78.28;102124.66;20706439;28;20046;-74
2022/08/31 04:51:53;;;;;;;0.95;0.45;;;;;;;19.14;78.49;102130.03;20675489;28;20589;-73
2022/08/31 05:01:54;;;;;;;0.50;0.25;;;;;;;19.12;78.17;102129.28;20678807;28;20042;-73
2022/08/31 05:12:08;;;;;;;0.75;0.30;;;;;;;19.12;78.21;102140.09;20699693;28;20054;-73
2022/08/31 05:22:10;;;;;;;0.55;0.55;;;;;;;19.03;78.47;102133.53;20684842;28;20050;-73
2022/08/31 05:32:15;;;;;;;3.03;0.50;;;;;;;19.12;78.29;102154.44;20708402;28;20502;-73
2022/08/31 05:42:18;;;;;;;1.77;0.28;;;;;;;19.12;78.21;102148.19;20721787;28;20049;-73
2022/08/31 05:52:20;;;;;;;1.33;0.43;;;;;;;19.05;78.23;102141.53;20702421;28;20521;-73
2022/08/31 06:02:27;;;;;;;1.27;0.45;;;;;;;19.11;78.10;102151.88;20688146;28;20514;-73
2022/08/31 06:12:33;;;;;;;0.93;0.30;;;;;;;19.10;78.08;102155.53;20736569;28;20499;-73
2022/08/31 06:22:35;;;;;;;0.68;0.30;;;;;;;19.11;78.06;102168.06;20755423;28;20037;-73
2022/08/31 06:32:40;;;;;;;2.42;0.40;;;;;;;19.10;78.27;102167.19;20662358;28;20133;-73
2022/08/31 06:42:42;;;;;;;0.75;0.40;;;;;;;19.10;77.89;102161.78;20674679;28;20073;-73
2022/08/31 06:53:10;;;;;;;1.17;0.30;;;;;;;19.10;77.81;102177.13;20745329;28;20073;-73
2022/08/31 07:03:33;;;;;;;0.57;0.30;;;;;;;19.10;77.83;102183.38;20785648;28;20050;-73
2022/08/31 07:13:35;;;;;;;1.85;0.40;;;;;;;19.10;78.25;102199.56;20697067;28;20065;-73
2022/08/31 07:23:38;;;;;;;1.15;0.30;;;;;;;19.10;78.22;102198.72;20706613;28;20100;-74
2022/08/31 07:33:45;;;;;;;0.75;0.30;;;;;;;19.10;77.94;102196.88;20703452;28;20069;-74
2022/08/31 07:43:47;;;;;;;3.17;0.40;;;;;;;18.99;78.22;102175.22;20707240;28;20506;-73
2022/08/31 07:53:51;;;;;;;1.25;0.40;;;;;;;19.10;78.02;102199.56;20695669;28;20074;-74
2022/08/31 08:04:05;;;;;;;1.52;0.38;;;;;;;19.11;78.34;102208.56;20714688;28;20050;-74
2022/08/31 08:14:24;;;;;;;0.40;0.30;;;;;;;19.10;78.17;102210.38;20726314;28;20049;-73
2022/08/31 08:24:57;;;;;;;2.55;0.55;;;;;;;19.12;78.64;102215.69;20710126;28;20490;-74
2022/08/31 08:35:16;;;;;;;0.32;0.22;;;;;;;19.17;78.37;102209.91;20719827;28;20076;-74
2022/08/31 08:45:18;;;;;;;0.55;0.50;;;;;;;19.21;78.59;102212.28;20708065;28;20626;-73
2022/08/31 08:55:25;;;;;;;0.88;0.30;;;;;;;19.24;78.51;102212.06;20691039;28;20073;-74
2022/08/31 09:05:54;;;;;;;0.63;0.40;;;;;;;19.27;78.69;102217.22;20720241;28;20076;-73
2022/08/31 09:16:24;;;;;;;1.33;0.50;;;;;;;19.22;78.75;102197.81;20726546;28;20049;-73
2022/08/31 09:26:31;;;;;;;1.10;0.38;;;;;;;19.23;78.80;102199.53;20729011;28;20880;-73
2022/08/31 09:36:41;;;;;;;1.00;0.30;;;;;;;19.28;79.14;102197.34;20695370;28;20157;-73
2022/08/31 09:46:52;;;;;;;0.88;0.55;;;;;;;19.39;79.00;102206.50;20721262;28;20045;-73
2022/08/31 09:56:56;;;;;;;0.47;0.30;;;;;;;19.41;79.32;102199.13;20798117;28;20045;-73
2022/08/31 10:07:18;;;;;;;0.30;0.30;;;;;;;19.41;79.32;102196.44;20784684;28;20053;-73
2022/08/31 10:17:25;;;;;;;0.88;0.35;;;;;;;19.42;79.35;102187.34;20772372;28;20552;-73
2022/08/31 10:27:42;;;;;;;0.60;0.30;;;;;;;19.41;79.49;102175.72;20795316;28;20049;-73
2022/08/31 10:37:55;;;;;;;1.85;0.43;;;;;;;19.44;79.75;102180.00;20777393;28;20042;-73
2022/08/31 10:47:58;;;;;;;0.40;0.30;;;;;;;19.44;79.73;102163.78;20738773;28;20059;-73
2022/08/31 10:58:02;;;;;;;0.82;0.20;;;;;;;19.44;79.60;102147.59;20715727;28;20061;-73
2022/08/31 11:09:00;;;;;;;2.22;0.50;;;;;;;19.45;79.84;102146.66;20713299;28;20049;-73
2022/08/31 11:19:15;;;;;;;1.23;0.50;;;;;;;19.40;79.75;102129.91;20774949;28;20045;-74
2022/08/31 11:29:33;;;;;;;0.40;0.35;;;;;;;19.45;79.83;102127.75;20697492;28;20065;-73
2022/08/31 11:39:37;;;;;;;0.55;0.50;;;;;;;19.47;79.22;102131.19;20718025;28;20062;-73
2022/08/31 11:50:04;;;;;;;0.50;0.30;;;;;;;19.47;79.18;102125.78;20779869;28;20054;-73
2022/08/31 12:00:18;;;;;;;0.90;0.30;;;;;;;19.48;79.06;102115.81;20818880;28;20448;-73
2022/08/31 12:10:22;;;;;;;0.45;0.35;;;;;;;19.48;79.30;102110.41;20779029;28;20049;-73
2022/08/31 12:31:14;;;;;;;0.70;0.30;;;;;;;19.47;78.88;102087.97;20692356;28;20048;-73
2022/08/31 12:41:16;;;;;;;0.63;0.40;;;;;;;19.48;78.81;102084.28;20708019;28;20403;-73
2022/08/31 12:51:29;;;;;;;0.40;0.20;;;;;;;19.48;78.44;102083.41;20724310;28;20446;-72
2022/08/31 13:01:31;;;;;;;1.00;0.30;;;;;;;19.18;78.10;102042.44;20730914;28;20072;-73
2022/08/31 13:11:41;;;;;;;0.85;0.40;;;;;;;19.50;77.98;102079.63;20688759;28;20061;-73
2022/08/31 13:21:48;;;;;;;2.35;0.77;;;;;;;19.52;78.50;102057.88;20664587;28;20065;-73
2022/08/31 13:31:51;;;;;;;5.18;0.98;;;;;;;19.40;79.98;102033.56;20699926;28;20088;-73
2022/08/31 13:42:06;;;;;;;4.97;0.60;;;;;;;19.55;81.12;102031.50;20794251;28;20057;-73
2022/08/31 13:52:22;;;;;;;5.00;0.68;;;;;;;19.46;80.90;102007.06;20794360;28;20059;-73
2022/08/31 14:02:26;;;;;;;2.42;0.80;;;;;;;19.12;81.22;101948.44;20728742;28;20124;-72
2022/08/31 14:12:44;;;;;;;5.32;0.95;;;;;;;19.56;81.22;102011.63;20717159;28;20062;-73
2022/08/31 14:22:48;;;;;;;;;;;;;;;19.54;81.09;102010.00;20685692;28;20062;-73
2022/08/31 14:32:51;;;;;;;1.85;0.63;;;;;;;19.53;80.88;102003.75;20665077;28;20556;-73
2022/08/31 14:42:53;;;;;;;2.75;0.65;;;;;;;19.54;80.89;102000.09;20686569;28;20057;-73
2022/08/31 14:52:56;;;;;;;4.05;0.93;;;;;;;19.56;80.62;101983.75;20685616;28;20058;-73
2022/08/31 15:02:59;;;;;;;5.18;0.85;;;;;;;19.56;80.03;101967.53;20709803;28;20851;-73
2022/08/31 15:13:04;;;;;;;1.73;0.70;;;;;;;19.70;79.18;101977.25;20669986;28;20666;-73
2022/08/31 15:23:07;;;;;;;2.65;0.52;;;;;;;19.71;79.26;101982.53;20672004;28;20091;-73
2022/08/31 15:33:08;;;;;;;0.85;0.60;;;;;;;19.70;78.09;101974.56;20722463;28;20060;-73
2022/08/31 15:43:14;;;;;;;1.02;0.50;;;;;;;19.73;79.19;101982.41;20666691;28;20560;-73
2022/08/31 15:53:16;;;;;;;9.35;5.40;;;;;;;19.77;81.12;101969.53;20678501;28;20057;-73
2022/08/31 16:03:17;;;;;;;19.95;9.75;;;;;;;19.82;85.54;101962.75;20677838;28;20521;-73
2022/08/31 16:13:19;;;;;;;12.45;5.70;;;;;;;19.86;86.95;101956.13;20670132;28;20089;-73
2022/08/31 16:23:20;;;;;;;16.75;4.25;;;;;;;19.89;86.86;101968.53;20677675;28;20062;-72
2022/08/31 16:33:22;;;;;;;7.15;3.55;;;;;;;19.91;86.02;101958.50;20679240;28;20052;-73
2022/08/31 16:43:23;;;;;;;7.95;3.70;;;;;;;19.92;85.09;101959.38;20678505;28;20133;-73
2022/08/31 16:53:25;;;;;;;6.53;3.00;;;;;;;19.92;84.63;101960.22;20680363;28;20050;-73
2022/08/31 17:03:27;;;;;;;5.28;2.72;;;;;;;19.93;84.33;101952.97;20676491;28;20132;-73
2022/08/31 17:13:28;;;;;;;7.63;2.58;;;;;;;19.92;83.78;101964.78;20684982;28;20053;-73
2022/08/31 17:23:30;;;;;;;5.60;1.90;;;;;;;19.92;83.33;101967.47;20681101;28;20140;-73
2022/08/31 17:33:32;;;;;;;3.85;1.90;;;;;;;19.90;83.16;101969.41;20720741;28;20038;-73
2022/08/31 17:43:36;;;;;;;3.63;1.65;;;;;;;19.90;82.91;101980.22;20692175;28;20069;-73
2022/08/31 17:53:37;;;;;;;3.30;1.83;;;;;;;19.90;82.96;101996.44;20717531;28;20132;-73
2022/08/31 18:03:39;;;;;;;3.70;1.42;;;;;;;19.79;82.51;101989.19;20748628;28;20054;-73
2022/08/31 18:13:42;;;;;;;3.13;1.08;;;;;;;19.88;82.45;102009.19;20697287;28;20054;-73
2022/08/31 18:23:45;;;;;;;6.90;1.40;;;;;;;19.86;82.47;102007.47;20690290;28;20042;-74
2022/08/31 18:33:50;;;;;;;3.97;1.42;;;;;;;19.83;82.41;102023.06;20678151;28;20061;-73
2022/08/31 18:54:14;;;;;;;2.28;0.88;;;;;;;19.73;82.96;102039.16;20695061;28;20053;-74
2022/08/31 19:04:16;;;;;;;2.00;0.77;;;;;;;19.68;82.67;102052.16;20713702;28;20498;-74
2022/08/31 19:14:24;;;;;;;5.22;1.23;;;;;;;19.66;82.62;102048.72;20713884;28;20046;-74
2022/08/31 19:24:28;;;;;;;3.05;0.98;;;;;;;19.54;82.76;102043.31;20718657;28;20111;-74
2022/08/31 19:34:33;;;;;;;0.93;0.50;;;;;;;19.31;82.55;102003.69;20726815;28;20140;-74
2022/08/31 19:44:36;;;;;;;1.90;0.80;;;;;;;19.56;82.65;102057.53;20727536;28;20414;-74
2022/08/31 19:55:01;;;;;;;1.75;0.88;;;;;;;19.46;82.48;102059.25;20726393;28;20056;-73
2022/08/31 20:05:10;;;;;;;2.17;0.90;;;;;;;19.53;82.53;102067.72;20726042;28;20406;-74
2022/08/31 20:15:11;;;;;;;2.05;0.80;;;;;;;19.50;82.51;102071.53;20706180;28;20066;-74
2022/08/31 20:25:13;;;;;;;1.50;0.80;;;;;;;19.23;82.33;102020.50;20724276;28;20049;-74
2022/08/31 20:35:19;;;;;;;1.65;0.70;;;;;;;19.49;82.27;102071.63;20784345;28;20068;-74
2022/08/31 20:45:21;;;;;;;1.25;0.70;;;;;;;19.34;82.44;102046.66;20770687;28;20421;-74
2022/08/31 20:55:23;;;;;;;2.20;0.90;;;;;;;19.46;82.25;102064.66;20799294;28;20045;-74
2022/08/31 21:05:28;;;;;;;1.17;0.50;;;;;;;19.17;82.29;102050.66;20798532;28;20064;-74
2022/08/31 21:15:42;;;;;;;1.60;0.80;;;;;;;19.42;82.07;102057.72;20716388;28;20490;-74
2022/08/31 21:25:44;;;;;;;;;;;;;;;19.42;82.30;102057.72;20702938;28;20595;-74
2022/08/31 21:35:46;;;;;;;1.15;0.60;;;;;;;19.40;82.09;102059.69;20716637;28;19983;-74
2022/08/31 21:46:04;;;;;;;0.65;0.52;;;;;;;19.39;82.39;102057.97;20717608;28;20053;-74
2022/08/31 21:56:06;;;;;;;1.88;0.80;;;;;;;19.38;82.52;102067.03;20717204;28;20113;-74
2022/08/31 22:06:13;;;;;;;1.45;0.70;;;;;;;19.32;82.59;102052.19;20715335;28;20071;-74
2022/08/31 22:16:15;;;;;;;1.77;0.70;;;;;;;19.23;82.49;102048.34;20715910;28;20042;-74
2022/08/31 22:26:21;;;;;;;1.13;0.60;;;;;;;19.35;82.58;102056.47;20714560;28;20406;-74
2022/08/31 22:36:35;;;;;;;0.90;0.70;;;;;;;19.35;82.43;102061.88;20697247;28;20054;-74
2022/08/31 22:46:38;;;;;;;0.88;0.70;;;;;;;19.26;82.50;102056.22;20713326;28;20054;-74
2022/08/31 22:56:40;;;;;;;0.80;0.70;;;;;;;19.17;82.47;102038.03;20697676;28;20050;-74
2022/08/31 23:06:41;;;;;;;1.50;0.70;;;;;;;19.32;82.62;102056.72;20730871;28;20053;-74
2022/08/31 23:16:45;;;;;;;0.90;0.60;;;;;;;19.31;82.68;102052.31;20727585;28;20061;-74
2022/08/31 23:26:47;;;;;;;1.52;0.60;;;;;;;19.28;82.63;102043.47;20729147;28;20050;-74
2022/08/31 23:36:50;;;;;;;0.63;0.57;;;;;;;19.07;82.77;102001.94;20727791;28;20041;-74
2022/08/31 23:46:51;;;;;;;0.60;0.50;;;;;;;19.08;82.52;102017.16;20725790;28;20057;-74
2022/08/31 23:56:56;;;;;;;1.20;0.60;;;;;;;19.27;82.46;102035.50;20722102;28;20584;-74
